Time;durP1;ratioP1;P1;durP2;ratioP2;P2;SDS_P1;SDS_P2;PMS_P1;PMS_P2;Temp;Humidity;BMP_temperature;BMP_pressure;BME280_temperature;BME280_humidity;BME280_pressure;Samples;Min_cycle;Max_cycle;Signal;HPM_P1;HPM_P2
2023/03/27 00:00:27;;;;;;;4.10;1.95;;;10.90;89.20;;;;;;5046510;28;20080;-56
2023/03/27 00:02:53;;;;;;;2.70;1.50;;;10.80;89.20;;;;;;5045408;28;20431;-56
2023/03/27 00:05:19;;;;;;;2.40;1.80;;;10.80;89.20;;;;;;5028623;28;20084;-56
2023/03/27 00:07:49;;;;;;;3.95;1.50;;;10.80;89.40;;;;;;5045270;28;20021;-56
2023/03/27 00:10:15;;;;;;;4.20;1.80;;;10.80;89.40;;;;;;5045200;28;20033;-56
2023/03/27 00:12:43;;;;;;;4.93;1.75;;;10.70;89.40;;;;;;5045351;28;20473;-56
2023/03/27 00:15:14;;;;;;;3.70;1.70;;;10.70;89.40;;;;;;5046487;28;20045;-56
2023/03/27 00:17:40;;;;;;;4.05;1.58;;;10.80;89.60;;;;;;5045317;28;20037;-56
2023/03/27 00:20:06;;;;;;;2.95;1.80;;;10.70;89.50;;;;;;5044952;28;20030;-56
2023/03/27 00:22:32;;;;;;;5.25;1.42;;;10.70;89.50;;;;;;5028403;28;20424;-56
2023/03/27 00:24:57;;;;;;;2.78;1.23;;;10.70;89.60;;;;;;5044928;28;20029;-56
2023/03/27 00:27:23;;;;;;;3.78;1.60;;;10.70;89.70;;;;;;5044799;28;20522;-56
2023/03/27 00:29:49;;;;;;;4.50;1.60;;;10.70;89.70;;;;;;5044910;28;20029;-55
2023/03/27 00:32:15;;;;;;;4.43;1.40;;;10.70;90.10;;;;;;5046753;28;20351;-56
2023/03/27 00:34:40;;;;;;;5.57;1.48;;;10.60;89.80;;;;;;5044619;28;20029;-56
2023/03/27 00:37:06;;;;;;;4.38;1.33;;;10.60;89.90;;;;;;5044859;28;20037;-56
2023/03/27 00:39:31;;;;;;;2.13;1.17;;;10.60;90.00;;;;;;5044565;28;20465;-56
2023/03/27 00:41:57;;;;;;;2.17;1.40;;;10.60;90.00;;;;;;5044593;28;20033;-56
2023/03/27 00:44:33;;;;;;;2.42;1.30;;;10.60;90.00;;;;;;5045828;28;20036;-56
2023/03/27 00:47:01;;;;;;;2.25;1.20;;;10.60;90.00;;;;;;5045842;28;20136;-56
2023/03/27 00:49:28;;;;;;;3.08;1.10;;;10.60;90.30;;;;;;5044414;28;20021;-56
2023/03/27 00:51:56;;;;;;;2.00;1.10;;;10.50;90.00;;;;;;5027674;28;20037;-56
2023/03/27 00:54:25;;;;;;;2.50;1.00;;;10.50;90.10;;;;;;5044452;28;20073;-56
2023/03/27 00:56:54;;;;;;;4.43;0.90;;;10.50;90.10;;;;;;5044328;28;20116;-56
2023/03/27 00:59:21;;;;;;;2.17;0.90;;;10.50;90.20;;;;;;5044200;28;20017;-56
2023/03/27 01:01:47;;;;;;;1.75;1.02;;;10.50;90.20;;;;;;5027501;28;20101;-56
2023/03/27 01:04:12;;;;;;;1.73;0.88;;;10.50;90.30;;;;;;5044176;28;20025;-56
2023/03/27 01:06:38;;;;;;;2.53;1.00;;;10.50;90.30;;;;;;5044090;28;20033;-56
2023/03/27 01:09:04;;;;;;;2.55;1.10;;;10.40;90.40;;;;;;5044029;28;20017;-56
2023/03/27 01:11:51;;;;;;;5.38;1.17;;;10.40;90.40;;;;;;5045394;28;20033;-56
2023/03/27 01:14:31;;;;;;;2.22;0.85;;;10.40;90.40;;;;;;5045343;28;20025;-56
2023/03/27 01:17:18;;;;;;;0.98;0.68;;;10.40;90.50;;;;;;5044085;28;20067;-56
2023/03/27 01:20:13;;;;;;;2.50;0.88;;;10.30;90.50;;;;;;5045297;28;20112;-55
2023/03/27 01:23:12;;;;;;;1.50;0.98;;;10.40;90.60;;;;;;5043906;28;20471;-56
2023/03/27 01:25:49;;;;;;;1.67;0.75;;;10.40;90.60;;;;;;5043984;28;20033;-56
2023/03/27 01:28:36;;;;;;;1.38;0.95;;;10.40;90.60;;;;;;5027414;28;20113;-56
2023/03/27 01:31:30;;;;;;;2.75;1.00;;;10.30;90.60;;;;;;5043560;28;20029;-56
2023/03/27 01:34:11;;;;;;;1.55;0.80;;;10.30;90.60;;;;;;5043816;28;20036;-56
2023/03/27 01:36:39;;;;;;;1.33;0.77;;;10.30;90.60;;;;;;5045010;28;20093;-56
2023/03/27 01:39:20;;;;;;;1.17;0.70;;;10.30;90.70;;;;;;5044801;28;20022;-56
2023/03/27 01:41:51;;;;;;;2.80;1.17;;;10.30;90.70;;;;;;5042773;28;20037;-56
2023/03/27 01:44:24;;;;;;;1.55;0.90;;;10.30;90.70;;;;;;5043596;28;20100;-56
2023/03/27 01:47:13;;;;;;;2.53;0.73;;;10.30;90.80;;;;;;5043470;28;20040;-56
2023/03/27 01:49:51;;;;;;;1.30;0.75;;;10.30;90.80;;;;;;5029597;28;20088;-56
2023/03/27 01:52:19;;;;;;;1.23;1.05;;;10.30;90.80;;;;;;5043461;28;20486;-56
2023/03/27 01:54:49;;;;;;;2.40;0.90;;;10.30;90.90;;;;;;5043382;28;20095;-56
2023/03/27 01:57:21;;;;;;;0.88;0.50;;;10.20;91.20;;;;;;5043401;28;20050;-56
2023/03/27 01:59:50;;;;;;;1.00;0.60;;;10.30;90.90;;;;;;5044752;28;20045;-56
2023/03/27 02:02:21;;;;;;;1.45;0.85;;;10.20;90.90;;;;;;5043338;28;20172;-56
2023/03/27 02:04:52;;;;;;;1.90;0.82;;;10.20;90.90;;;;;;5043333;28;20029;-56
2023/03/27 02:07:22;;;;;;;1.60;0.70;;;10.20;91.00;;;;;;5044543;28;20128;-56
2023/03/27 02:09:49;;;;;;;1.35;0.47;;;10.20;91.00;;;;;;5043209;28;20028;-56
2023/03/27 02:12:18;;;;;;;1.48;0.70;;;10.20;91.10;;;;;;5043275;28;20034;-56
2023/03/27 02:14:53;;;;;;;1.30;0.60;;;10.10;91.10;;;;;;5043192;28;20370;-56
2023/03/27 02:17:19;;;;;;;1.00;0.50;;;10.10;91.10;;;;;;5043238;28;20029;-56
2023/03/27 02:19:59;;;;;;;1.08;0.68;;;10.20;91.20;;;;;;5043142;28;20101;-56
2023/03/27 02:22:25;;;;;;;2.00;0.73;;;10.20;91.20;;;;;;5043067;28;20474;-56
2023/03/27 02:24:54;;;;;;;1.10;0.70;;;10.20;91.20;;;;;;5043155;28;20029;-56
2023/03/27 02:27:23;;;;;;;1.40;0.77;;;10.10;91.20;;;;;;5043063;28;20056;-56
2023/03/27 02:30:18;;;;;;;1.58;0.98;;;10.10;91.20;;;;;;5043190;28;20025;-56
2023/03/27 02:32:48;;;;;;;1.17;0.70;;;10.10;91.30;;;;;;5042141;28;20034;-56
2023/03/27 02:35:39;;;;;;;2.55;0.57;;;10.10;91.30;;;;;;5043050;28;20017;-56
2023/03/27 02:38:11;;;;;;;0.70;0.52;;;10.10;91.30;;;;;;5044347;28;20017;-56
2023/03/27 02:40:43;;;;;;;1.92;0.80;;;10.10;91.30;;;;;;5044146;28;20034;-56
2023/03/27 02:43:15;;;;;;;1.90;0.80;;;10.10;91.40;;;;;;5044350;28;20037;-56
2023/03/27 02:45:53;;;;;;;0.98;0.52;;;10.00;91.40;;;;;;5043065;28;20043;-56
2023/03/27 02:48:25;;;;;;;0.85;0.52;;;10.10;91.40;;;;;;5026361;28;20060;-56
2023/03/27 02:50:57;;;;;;;2.42;0.70;;;10.00;91.40;;;;;;5042718;28;20029;-56
2023/03/27 02:53:24;;;;;;;1.23;0.70;;;10.00;91.80;;;;;;5044718;28;20033;-56
2023/03/27 02:55:52;;;;;;;2.15;0.70;;;10.10;91.50;;;;;;5046529;28;20057;-55
2023/03/27 02:58:21;;;;;;;1.65;0.57;;;10.00;91.50;;;;;;5046722;28;20021;-56
2023/03/27 03:00:47;;;;;;;1.38;0.52;;;10.00;91.50;;;;;;5046466;28;20038;-56
2023/03/27 03:03:33;;;;;;;1.98;0.70;;;10.00;91.60;;;;;;5029818;28;20478;-56
2023/03/27 03:05:59;;;;;;;1.05;0.57;;;10.00;91.60;;;;;;5046411;28;20037;-56
2023/03/27 03:08:29;;;;;;;0.88;0.57;;;10.00;91.60;;;;;;5046325;28;20041;-56
2023/03/27 03:10:59;;;;;;;0.80;0.60;;;10.00;91.80;;;;;;5046244;28;20040;-56
2023/03/27 03:13:25;;;;;;;1.35;0.45;;;10.00;91.70;;;;;;5029648;28;20025;-56
2023/03/27 03:15:51;;;;;;;1.27;0.50;;;10.00;91.70;;;;;;5046172;28;20056;-56
2023/03/27 03:18:17;;;;;;;1.35;0.60;;;10.00;91.70;;;;;;5046166;28;20029;-56
2023/03/27 03:20:43;;;;;;;1.67;0.60;;;10.00;91.70;;;;;;5046081;28;20219;-56
2023/03/27 03:23:09;;;;;;;1.90;0.50;;;10.00;91.70;;;;;;5046146;28;20028;-56
2023/03/27 03:25:34;;;;;;;0.40;0.40;;;10.00;91.70;;;;;;5045820;28;20029;-56
2023/03/27 03:28:00;;;;;;;2.15;0.55;;;9.90;91.70;;;;;;5046081;28;20021;-56
2023/03/27 03:30:29;;;;;;;1.65;0.50;;;10.00;91.70;;;;;;5047205;28;20464;-56
2023/03/27 03:32:54;;;;;;;2.17;0.90;;;10.00;91.70;;;;;;5045916;28;20037;-56
2023/03/27 03:35:21;;;;;;;1.25;0.70;;;10.00;91.70;;;;;;5045840;28;20021;-56
2023/03/27 03:37:50;;;;;;;0.57;0.50;;;9.90;91.70;;;;;;5045972;28;20031;-56
2023/03/27 03:40:16;;;;;;;1.33;0.85;;;9.90;91.70;;;;;;5045736;28;20033;-56
2023/03/27 03:42:51;;;;;;;0.70;0.63;;;9.90;91.80;;;;;;5029324;28;20025;-56
2023/03/27 03:45:17;;;;;;;1.60;0.70;;;9.90;92.10;;;;;;5045664;28;20045;-56
2023/03/27 03:47:43;;;;;;;1.13;0.70;;;9.90;92.10;;;;;;5045830;28;20036;-56
2023/03/27 03:50:09;;;;;;;0.75;0.75;;;9.90;91.80;;;;;;5045480;28;20185;-56
2023/03/27 03:52:35;;;;;;;1.45;1.00;;;9.90;91.80;;;;;;5028934;28;20041;-56
2023/03/27 03:55:03;;;;;;;1.88;1.00;;;9.90;91.90;;;;;;5029167;28;20099;-56
2023/03/27 03:57:29;;;;;;;1.05;0.57;;;9.90;91.80;;;;;;5046833;28;20026;-56
2023/03/27 03:59:56;;;;;;;1.60;0.82;;;9.90;91.80;;;;;;5045501;28;20109;-56
2023/03/27 04:02:28;;;;;;;2.78;0.88;;;9.90;92.10;;;;;;5045450;28;20403;-56
2023/03/27 04:04:54;;;;;;;2.30;0.88;;;9.90;91.80;;;;;;5045236;28;20033;-56
2023/03/27 04:07:23;;;;;;;1.17;0.80;;;9.90;91.80;;;;;;5045311;28;20086;-56
2023/03/27 04:09:49;;;;;;;0.85;0.70;;;9.90;92.10;;;;;;5046779;28;20029;-56
2023/03/27 04:12:15;;;;;;;1.65;1.00;;;9.90;91.80;;;;;;5045216;28;20029;-56
2023/03/27 04:14:41;;;;;;;1.08;0.90;;;9.90;91.80;;;;;;5046561;28;20094;-56
2023/03/27 04:17:07;;;;;;;1.08;0.95;;;9.80;91.80;;;;;;5045169;28;20044;-56
2023/03/27 04:19:32;;;;;;;1.35;0.88;;;9.90;91.90;;;;;;5028716;28;20065;-56
2023/03/27 04:22:01;;;;;;;3.00;0.98;;;9.80;91.90;;;;;;5046492;28;20070;-56
2023/03/27 04:24:29;;;;;;;1.90;1.08;;;9.80;91.90;;;;;;5045082;28;20028;-56
2023/03/27 04:26:57;;;;;;;1.65;1.15;;;9.80;91.90;;;;;;5044773;28;20041;-56
2023/03/27 04:29:23;;;;;;;1.33;0.80;;;9.80;91.90;;;;;;5045064;28;20025;-56
2023/03/27 04:31:49;;;;;;;1.35;1.20;;;9.80;91.90;;;;;;5044763;28;20382;-56
2023/03/27 04:34:19;;;;;;;1.55;1.20;;;9.80;91.90;;;;;;5044777;28;20033;-56
2023/03/27 04:36:44;;;;;;;1.40;1.02;;;9.80;91.90;;;;;;5046084;28;20088;-56
2023/03/27 04:39:10;;;;;;;2.10;1.20;;;9.80;91.90;;;;;;5044877;28;20463;-56
2023/03/27 04:41:37;;;;;;;1.50;0.98;;;9.80;91.90;;;;;;5044607;28;20113;-56
2023/03/27 04:44:04;;;;;;;1.77;1.00;;;9.80;91.90;;;;;;5044748;28;20125;-56
2023/03/27 04:46:29;;;;;;;1.25;1.15;;;9.80;92.00;;;;;;5044500;28;20025;-56
2023/03/27 04:48:55;;;;;;;1.05;0.90;;;9.80;92.00;;;;;;5045966;28;20025;-56
2023/03/27 04:51:21;;;;;;;1.23;1.13;;;9.80;92.00;;;;;;5045684;28;20382;-56
2023/03/27 04:53:46;;;;;;;1.20;0.98;;;9.80;92.00;;;;;;5044607;28;20085;-56
2023/03/27 04:56:12;;;;;;;1.42;1.17;;;9.70;92.00;;;;;;5044481;28;20113;-56
2023/03/27 04:58:40;;;;;;;1.50;1.20;;;9.70;92.00;;;;;;5044286;28;20099;-56
2023/03/27 05:01:05;;;;;;;1.30;1.13;;;9.70;92.10;;;;;;5028138;28;20036;-56
2023/03/27 05:03:33;;;;;;;1.10;1.00;;;9.70;92.10;;;;;;5045729;28;20022;-56
2023/03/27 05:05:58;;;;;;;1.40;1.05;;;9.70;92.20;;;;;;5044527;28;20049;-56
2023/03/27 05:08:25;;;;;;;1.05;0.93;;;9.70;92.20;;;;;;5045842;28;20029;-56
2023/03/27 05:10:50;;;;;;;1.05;0.80;;;9.70;92.20;;;;;;5045653;28;20041;-56
2023/03/27 05:13:16;;;;;;;1.33;0.98;;;9.70;92.20;;;;;;5044044;28;20091;-56
2023/03/27 05:15:42;;;;;;;1.17;0.85;;;9.70;92.20;;;;;;5043225;28;20061;-56
2023/03/27 05:18:07;;;;;;;1.50;0.90;;;9.70;92.20;;;;;;5044109;28;20056;-56
2023/03/27 05:20:33;;;;;;;1.67;0.95;;;9.70;92.30;;;;;;5045280;28;20087;-56
2023/03/27 05:22:59;;;;;;;0.95;0.75;;;9.60;92.30;;;;;;5044130;28;20068;-56
2023/03/27 05:25:25;;;;;;;0.70;0.70;;;9.60;92.40;;;;;;5044041;28;20017;-56
2023/03/27 05:27:51;;;;;;;0.55;0.55;;;9.60;92.50;;;;;;5043976;28;20034;-56
2023/03/27 05:30:20;;;;;;;0.75;0.75;;;9.60;92.50;;;;;;5044216;28;20052;-56
2023/03/27 05:32:47;;;;;;;0.80;0.80;;;9.60;92.40;;;;;;5044388;28;20088;-56
2023/03/27 05:35:17;;;;;;;1.23;0.80;;;9.60;92.40;;;;;;5045951;28;20060;-56
2023/03/27 05:37:51;;;;;;;1.02;0.90;;;9.50;92.40;;;;;;5043820;28;20088;-56
2023/03/27 05:40:20;;;;;;;1.17;0.80;;;9.50;92.50;;;;;;5027051;28;20068;-56
2023/03/27 05:42:46;;;;;;;0.73;0.57;;;9.50;92.40;;;;;;5043624;28;20030;-56
2023/03/27 05:45:12;;;;;;;1.13;0.57;;;9.50;92.70;;;;;;5043699;28;20032;-56
2023/03/27 05:47:51;;;;;;;1.42;0.80;;;9.50;92.50;;;;;;5026964;28;20037;-56
2023/03/27 05:50:18;;;;;;;1.15;0.80;;;9.50;92.50;;;;;;5043449;28;20025;-56
2023/03/27 05:52:43;;;;;;;2.35;0.68;;;9.50;92.50;;;;;;5043324;28;20091;-56
2023/03/27 05:55:09;;;;;;;0.82;0.70;;;9.50;92.50;;;;;;5027147;28;20025;-56
2023/03/27 05:57:38;;;;;;;0.82;0.70;;;9.50;92.50;;;;;;5043415;28;20100;-56
2023/03/27 06:00:10;;;;;;;1.35;0.80;;;9.40;92.50;;;;;;5043372;28;20025;-56
2023/03/27 06:02:36;;;;;;;1.25;0.52;;;9.40;92.40;;;;;;5043194;28;20030;-56
2023/03/27 06:05:03;;;;;;;1.45;0.90;;;9.40;92.40;;;;;;5044421;28;20056;-56
2023/03/27 06:07:29;;;;;;;0.90;0.77;;;9.40;92.30;;;;;;5044369;28;20081;-56
2023/03/27 06:09:55;;;;;;;2.03;0.80;;;9.50;92.30;;;;;;5043190;28;20025;-56
2023/03/27 06:12:22;;;;;;;0.90;0.60;;;9.40;92.30;;;;;;5043210;28;20037;-56
2023/03/27 06:14:48;;;;;;;1.13;0.65;;;9.40;92.30;;;;;;5043156;28;20044;-56
2023/03/27 06:17:14;;;;;;;2.00;0.65;;;9.40;92.20;;;;;;5043035;28;20029;-56
2023/03/27 06:19:40;;;;;;;0.82;0.63;;;9.50;92.30;;;;;;5040122;28;20032;-56
2023/03/27 06:22:06;;;;;;;1.10;0.60;;;9.40;92.20;;;;;;5040202;28;20053;-56
2023/03/27 06:24:31;;;;;;;1.00;0.80;;;9.50;92.20;;;;;;5043007;28;20555;-56
2023/03/27 06:26:57;;;;;;;6.15;0.90;;;9.50;92.20;;;;;;5043735;28;20026;-56
2023/03/27 06:29:23;;;;;;;0.98;0.50;;;9.50;92.20;;;;;;5048732;28;20076;-56
2023/03/27 06:31:49;;;;;;;0.90;0.80;;;9.50;92.10;;;;;;5046534;28;20446;-56
2023/03/27 06:34:15;;;;;;;2.03;0.75;;;9.50;92.00;;;;;;5046324;28;20030;-56
2023/03/27 06:36:40;;;;;;;0.90;0.70;;;9.50;92.00;;;;;;5013505;28;20064;-56
2023/03/27 06:39:07;;;;;;;1.65;0.90;;;9.50;91.90;;;;;;5047587;28;20037;-56
2023/03/27 06:41:32;;;;;;;1.38;1.00;;;9.50;91.80;;;;;;5048171;28;20044;-56
2023/03/27 06:43:58;;;;;;;2.58;0.80;;;9.50;91.70;;;;;;5045658;28;20093;-56
2023/03/27 06:46:23;;;;;;;0.90;0.80;;;9.50;91.60;;;;;;5047039;28;20172;-56
2023/03/27 06:48:50;;;;;;;2.05;0.90;;;9.40;91.70;;;;;;5047833;28;20091;-57
2023/03/27 06:51:17;;;;;;;1.75;0.95;;;9.50;91.40;;;;;;5046699;28;20033;-59
2023/03/27 06:53:42;;;;;;;2.25;1.02;;;9.50;91.30;;;;;;5046213;28;20513;-58
2023/03/27 06:56:08;;;;;;;1.23;0.98;;;9.50;91.20;;;;;;5046080;28;20112;-58
2023/03/27 06:58:33;;;;;;;0.93;0.82;;;9.50;91.10;;;;;;5047062;28;20474;-58
2023/03/27 07:00:59;;;;;;;1.30;0.90;;;9.50;91.10;;;;;;5046473;28;20132;-58
2023/03/27 07:03:25;;;;;;;1.65;1.00;;;9.50;91.00;;;;;;5046315;28;20132;-58
2023/03/27 07:05:50;;;;;;;1.83;0.77;;;9.50;91.00;;;;;;5047899;28;20049;-58
2023/03/27 07:08:17;;;;;;;1.25;1.00;;;9.50;91.00;;;;;;5046451;28;20419;-59
2023/03/27 07:10:43;;;;;;;1.52;1.02;;;9.50;91.00;;;;;;5047745;28;20029;-58
2023/03/27 07:13:09;;;;;;;0.80;0.77;;;9.50;90.90;;;;;;5046288;28;20025;-59
2023/03/27 07:15:35;;;;;;;0.85;0.80;;;9.50;91.10;;;;;;5047581;28;20498;-59
2023/03/27 07:18:05;;;;;;;3.05;0.95;;;9.50;90.70;;;;;;5047504;28;20034;-59
2023/03/27 07:20:30;;;;;;;1.50;1.00;;;9.50;90.70;;;;;;5047527;28;20048;-58
2023/03/27 07:22:57;;;;;;;1.88;0.90;;;9.50;90.60;;;;;;5046001;28;20029;-58
2023/03/27 07:25:26;;;;;;;2.67;0.93;;;9.60;90.50;;;;;;5062542;28;20013;-58
2023/03/27 07:27:57;;;;;;;1.77;1.20;;;9.50;90.50;;;;;;5045768;28;20084;-58
2023/03/27 07:30:23;;;;;;;1.33;1.08;;;9.50;90.30;;;;;;5062600;28;20037;-59
2023/03/27 07:32:48;;;;;;;5.07;1.48;;;9.50;90.20;;;;;;5045795;28;20370;-59
2023/03/27 07:35:14;;;;;;;5.82;1.20;;;9.60;90.20;;;;;;5029284;28;20036;-60
2023/03/27 07:37:41;;;;;;;4.85;1.45;;;9.50;89.90;;;;;;5045816;28;20540;-59
2023/03/27 07:40:07;;;;;;;4.63;1.70;;;9.50;89.90;;;;;;5046369;28;20022;-58
2023/03/27 07:42:33;;;;;;;4.22;1.60;;;9.50;89.50;;;;;;5047253;28;20029;-58
2023/03/27 07:45:00;;;;;;;2.20;1.45;;;9.50;89.10;;;;;;5045647;28;20041;-58
2023/03/27 07:47:25;;;;;;;33.97;4.10;;;9.60;89.00;;;;;;5045302;28;20036;-58
2023/03/27 07:49:51;;;;;;;25.92;3.50;;;9.60;88.70;;;;;;5045823;28;20461;-59
2023/03/27 07:52:17;;;;;;;14.70;2.63;;;9.60;88.50;;;;;;5045398;28;20029;-58
2023/03/27 07:54:42;;;;;;;18.60;2.55;;;9.60;88.20;;;;;;5045448;28;20402;-59
2023/03/27 07:57:09;;;;;;;9.82;2.35;;;9.70;88.20;;;;;;5045446;28;20481;-58
2023/03/27 07:59:35;;;;;;;6.47;1.90;;;9.70;88.00;;;;;;5045310;28;20026;-58
2023/03/27 08:02:00;;;;;;;8.18;2.03;;;9.70;87.70;;;;;;5028421;28;20041;-58
2023/03/27 08:04:26;;;;;;;10.23;2.30;;;9.70;87.40;;;;;;5045023;28;20086;-59
2023/03/27 08:06:53;;;;;;;14.60;2.83;;;9.70;87.20;;;;;;5044725;28;20057;-58
2023/03/27 08:09:19;;;;;;;16.20;2.72;;;9.70;87.00;;;;;;5044846;28;20097;-59
2023/03/27 08:11:45;;;;;;;7.63;2.30;;;9.70;86.90;;;;;;5029042;28;20025;-58
2023/03/27 08:14:11;;;;;;;8.85;2.20;;;9.60;86.30;;;;;;5045332;28;20057;-58
2023/03/27 08:16:36;;;;;;;6.85;2.22;;;9.70;86.00;;;;;;5044187;28;20128;-58
2023/03/27 08:19:03;;;;;;;9.77;2.28;;;9.70;85.90;;;;;;5027053;28;20033;-59
2023/03/27 08:21:33;;;;;;;6.85;2.80;;;9.70;85.70;;;;;;5026780;28;20025;-58
2023/03/27 08:24:00;;;;;;;10.25;2.47;;;9.70;85.60;;;;;;5043904;28;20037;-59
2023/03/27 08:26:26;;;;;;;8.15;2.65;;;9.80;85.50;;;;;;5026808;28;20100;-58
2023/03/27 08:28:52;;;;;;;10.23;2.65;;;9.80;85.40;;;;;;5045662;28;20033;-58
2023/03/27 08:31:18;;;;;;;21.60;3.17;;;9.80;85.30;;;;;;5028117;28;20104;-58
2023/03/27 08:33:44;;;;;;;15.60;2.85;;;9.80;85.20;;;;;;5028130;28;20035;-58
2023/03/27 08:36:10;;;;;;;20.63;2.80;;;9.80;85.10;;;;;;5044749;28;20045;-59
2023/03/27 08:38:38;;;;;;;10.02;2.80;;;9.80;85.10;;;;;;5027893;28;20489;-58
2023/03/27 08:41:04;;;;;;;12.25;2.95;;;9.80;85.00;;;;;;5044229;28;20067;-57
2023/03/27 08:43:35;;;;;;;14.05;2.92;;;9.80;85.60;;;;;;5044527;28;20025;-58
2023/03/27 08:46:21;;;;;;;9.63;2.67;;;9.80;84.80;;;;;;5044315;28;20465;-58
2023/03/27 08:49:05;;;;;;;9.48;2.50;;;9.80;84.70;;;;;;5044331;28;20104;-58
2023/03/27 08:51:53;;;;;;;7.80;2.65;;;9.80;85.20;;;;;;5044162;28;20095;-58
2023/03/27 08:54:33;;;;;;;14.27;3.17;;;9.80;84.60;;;;;;5044090;28;20038;-58
2023/03/27 08:56:59;;;;;;;9.00;2.53;;;9.80;84.50;;;;;;5027913;28;20037;-58
2023/03/27 08:59:27;;;;;;;13.48;2.90;;;9.80;84.40;;;;;;5044468;28;20037;-58
2023/03/27 09:02:12;;;;;;;12.85;3.00;;;9.80;84.30;;;;;;5044081;28;20033;-58
2023/03/27 09:05:00;;;;;;;20.00;3.03;;;9.90;84.10;;;;;;5044355;28;20059;-58
2023/03/27 09:07:33;;;;;;;17.67;3.85;;;9.80;83.90;;;;;;5028059;28;20030;-58
2023/03/27 09:10:35;;;;;;;21.20;3.80;;;9.90;83.90;;;;;;5044114;28;20072;-58
2023/03/27 09:13:30;;;;;;;13.18;3.05;;;9.90;83.70;;;;;;5045843;28;20034;-59
2023/03/27 09:16:12;;;;;;;13.32;2.97;;;9.90;83.50;;;;;;5044016;28;20025;-58
2023/03/27 09:19:02;;;;;;;19.10;3.40;;;9.90;83.40;;;;;;5044317;28;20033;-58
2023/03/27 09:21:48;;;;;;;19.75;3.53;;;9.90;83.50;;;;;;5043748;28;20036;-58
2023/03/27 09:24:36;;;;;;;14.52;2.88;;;9.90;83.40;;;;;;5027333;28;20032;-58
2023/03/27 09:27:37;;;;;;;15.43;3.20;;;9.90;83.30;;;;;;5040195;28;20115;-58
2023/03/27 09:30:21;;;;;;;10.55;2.95;;;9.90;83.40;;;;;;5027024;28;20017;-58
2023/03/27 09:32:47;;;;;;;11.80;3.30;;;9.90;83.30;;;;;;5043677;28;20044;-58
2023/03/27 09:35:14;;;;;;;17.17;3.40;;;10.00;83.10;;;;;;5043253;28;20026;-58
2023/03/27 09:37:41;;;;;;;8.23;2.60;;;9.90;82.90;;;;;;5027175;28;20026;-58
2023/03/27 09:40:17;;;;;;;14.70;3.22;;;10.00;83.00;;;;;;5044371;28;20041;-58
2023/03/27 09:42:42;;;;;;;12.32;3.40;;;10.00;82.80;;;;;;5028190;28;20112;-58
2023/03/27 09:45:10;;;;;;;17.15;3.00;;;10.00;82.50;;;;;;5007102;28;20029;-58
2023/03/27 09:47:37;;;;;;;15.95;3.17;;;10.00;82.30;;;;;;5007391;28;20045;-58
2023/03/27 09:50:20;;;;;;;7.38;2.40;;;10.00;82.20;;;;;;5012083;28;20101;-58
2023/03/27 09:52:46;;;;;;;12.23;2.47;;;10.00;82.40;;;;;;5044636;28;20034;-59
2023/03/27 09:55:33;;;;;;;8.98;2.78;;;10.00;82.40;;;;;;5043081;28;20022;-58
2023/03/27 09:58:24;;;;;;;8.63;2.63;;;10.10;82.50;;;;;;5043211;28;20132;-58
2023/03/27 10:01:18;;;;;;;16.05;3.10;;;10.10;82.10;;;;;;5020795;28;20041;-58
2023/03/27 10:03:50;;;;;;;28.23;4.65;;;10.10;81.80;;;;;;5028823;28;20145;-59
2023/03/27 10:06:25;;;;;;;42.10;6.35;;;10.20;81.90;;;;;;5044099;28;20117;-58
2023/03/27 10:08:51;;;;;;;14.32;4.00;;;10.20;81.80;;;;;;5042912;28;20045;-58
2023/03/27 10:11:19;;;;;;;21.33;3.72;;;10.20;81.40;;;;;;5042526;28;20025;-58
2023/03/27 10:13:46;;;;;;;42.25;5.25;;;10.30;81.20;;;;;;5042694;28;20029;-58
2023/03/27 10:16:16;;;;;;;47.97;7.57;;;10.30;81.70;;;;;;5042673;28;20050;-59
2023/03/27 10:18:43;;;;;;;43.30;4.95;;;10.40;81.10;;;;;;5026819;28;20034;-58
2023/03/27 10:21:10;;;;;;;46.72;5.78;;;10.40;81.10;;;;;;5042724;28;20108;-58
2023/03/27 10:23:48;;;;;;;42.03;5.47;;;10.40;81.10;;;;;;5005099;28;20041;-58
2023/03/27 10:26:17;;;;;;;37.22;5.95;;;10.40;81.10;;;;;;5020168;28;20065;-58
2023/03/27 10:28:46;;;;;;;28.20;5.15;;;10.40;81.00;;;;;;5042538;28;20029;-58
2023/03/27 10:31:28;;;;;;;43.85;5.60;;;10.40;81.00;;;;;;5009529;28;20064;-58
2023/03/27 10:33:55;;;;;;;38.67;6.07;;;10.50;81.00;;;;;;5041184;28;20036;-58
2023/03/27 10:36:21;;;;;;;42.63;6.57;;;10.50;80.80;;;;;;5043995;28;20170;-58
2023/03/27 10:39:11;;;;;;;87.32;11.55;;;10.50;80.50;;;;;;5044178;28;20030;-58
2023/03/27 10:41:37;;;;;;;103.93;10.75;;;10.60;80.70;;;;;;5043898;28;20038;-58
2023/03/27 10:44:16;;;;;;;78.13;9.50;;;10.60;80.80;;;;;;5042422;28;20041;-58
2023/03/27 10:46:42;;;;;;;59.65;7.97;;;10.60;80.50;;;;;;5042633;28;20107;-58
2023/03/27 10:49:27;;;;;;;53.92;6.75;;;10.70;80.50;;;;;;5042464;28;20029;-58
2023/03/27 10:52:02;;;;;;;74.18;9.90;;;10.70;80.40;;;;;;5042417;28;20037;-58
2023/03/27 10:54:46;;;;;;;76.50;9.00;;;10.70;80.40;;;;;;5043890;28;20446;-58
2023/03/27 10:57:17;;;;;;;126.90;14.50;;;10.80;80.40;;;;;;5043912;28;20033;-58
2023/03/27 10:59:46;;;;;;;117.75;12.93;;;10.80;80.30;;;;;;5042312;28;20061;-59
2023/03/27 11:02:17;;;;;;;95.53;12.18;;;10.80;80.20;;;;;;5042373;28;20053;-58
2023/03/27 11:04:52;;;;;;;76.75;10.32;;;10.90;80.10;;;;;;5042609;28;20049;-58
2023/03/27 11:07:43;;;;;;;71.07;10.27;;;10.90;79.70;;;;;;5042571;28;20026;-58
2023/03/27 11:10:16;;;;;;;98.00;10.82;;;10.90;79.50;;;;;;5015565;28;20030;-58
2023/03/27 11:12:42;;;;;;;68.88;9.18;;;11.00;79.30;;;;;;5042477;28;20030;-58
2023/03/27 11:15:12;;;;;;;55.97;7.95;;;11.00;79.70;;;;;;5045401;28;20042;-58
2023/03/27 11:17:45;;;;;;;79.07;11.55;;;11.00;78.90;;;;;;5046184;28;20025;-58
2023/03/27 11:20:19;;;;;;;77.63;10.02;;;11.10;79.00;;;;;;5045829;28;20025;-58
2023/03/27 11:22:49;;;;;;;91.25;9.95;;;11.10;78.90;;;;;;5045886;28;20446;-58
2023/03/27 11:25:38;;;;;;;90.20;8.57;;;11.10;78.70;;;;;;5045895;28;20415;-59
2023/03/27 11:28:16;;;;;;;75.95;9.27;;;11.10;78.30;;;;;;5028682;28;20025;-58
2023/03/27 11:30:43;;;;;;;74.50;9.10;;;11.10;77.80;;;;;;5029343;28;20060;-59
2023/03/27 11:33:39;;;;;;;90.63;11.98;;;11.30;77.70;;;;;;5029195;28;20405;-58
2023/03/27 11:36:11;;;;;;;103.30;11.63;;;11.20;77.70;;;;;;5062189;28;20028;-58
2023/03/27 11:38:40;;;;;;;105.53;13.35;;;11.30;77.60;;;;;;5066890;28;20434;-58
2023/03/27 11:41:08;;;;;;;82.60;13.10;;;11.30;77.30;;;;;;5049253;28;20049;-58
2023/03/27 11:43:34;;;;;;;82.38;11.60;;;11.30;77.30;;;;;;5050576;28;20089;-59
2023/03/27 11:46:42;;;;;;;122.13;12.65;;;11.40;77.30;;;;;;5050288;28;20531;-58
2023/03/27 11:49:13;;;;;;;69.47;10.13;;;11.40;77.00;;;;;;5035083;28;20113;-58
2023/03/27 11:51:58;;;;;;;77.30;10.38;;;11.40;76.80;;;;;;5046485;28;20030;-58
2023/03/27 11:54:30;;;;;;;97.28;11.38;;;11.50;76.40;;;;;;5025655;28;20470;-58
2023/03/27 11:56:58;;;;;;;72.80;10.13;;;11.50;76.20;;;;;;5041316;28;20030;-58
2023/03/27 11:59:50;;;;;;;74.55;9.68;;;11.60;75.90;;;;;;5041790;28;20096;-58
2023/03/27 12:02:22;;;;;;;56.33;9.18;;;11.60;75.60;;;;;;5041184;28;20036;-58
2023/03/27 12:05:02;;;;;;;87.63;8.73;;;11.70;75.50;;;;;;5066571;28;20029;-58
2023/03/27 12:07:35;;;;;;;54.83;6.78;;;11.70;75.20;;;;;;5066517;28;20025;-58
2023/03/27 12:10:10;;;;;;;52.70;7.43;;;11.70;74.90;;;;;;5057819;28;20045;-58
2023/03/27 12:12:39;;;;;;;49.28;7.63;;;11.80;74.80;;;;;;5059675;28;20029;-58
2023/03/27 12:15:39;;;;;;;48.28;6.35;;;11.80;74.50;;;;;;5066492;28;20059;-58
2023/03/27 12:18:07;;;;;;;43.78;6.40;;;11.90;74.50;;;;;;5066468;28;20049;-58
2023/03/27 12:21:03;;;;;;;60.28;7.35;;;11.90;74.30;;;;;;5064368;28;20102;-58
2023/03/27 12:23:43;;;;;;;48.70;7.28;;;11.90;74.00;;;;;;5058989;28;20034;-58
2023/03/27 12:26:36;;;;;;;52.72;7.38;;;12.00;73.70;;;;;;5028237;28;20095;-58
2023/03/27 12:29:17;;;;;;;52.40;6.88;;;12.00;73.50;;;;;;5045482;28;20105;-58
2023/03/27 12:32:07;;;;;;;77.80;9.93;;;12.10;73.40;;;;;;5045764;28;20033;-58
2023/03/27 12:34:51;;;;;;;83.93;8.70;;;12.20;73.40;;;;;;5065726;28;20043;-58
2023/03/27 12:37:24;;;;;;;34.28;6.25;;;12.20;73.20;;;;;;5049050;28;20068;-58
2023/03/27 12:39:52;;;;;;;46.35;6.93;;;12.30;73.10;;;;;;5045015;28;20037;-58
2023/03/27 12:42:40;;;;;;;61.92;9.45;;;12.30;73.30;;;;;;5048198;28;20055;-58
2023/03/27 12:45:17;;;;;;;67.53;10.27;;;12.30;73.20;;;;;;5063332;28;20060;-58
2023/03/27 12:48:04;;;;;;;51.60;8.05;;;12.40;73.30;;;;;;5064697;28;20111;-58
2023/03/27 12:50:32;;;;;;;48.15;6.70;;;12.40;73.00;;;;;;5027186;28;20481;-59
2023/03/27 12:53:03;;;;;;;53.88;6.85;;;12.40;72.70;;;;;;5050775;28;20049;-58
2023/03/27 12:55:33;;;;;;;54.47;7.85;;;12.40;72.60;;;;;;5064586;28;20029;-58
2023/03/27 12:57:59;;;;;;;55.30;7.35;;;12.50;72.50;;;;;;5065855;28;20036;-58
2023/03/27 13:00:27;;;;;;;40.03;6.38;;;12.50;72.60;;;;;;5062069;28;20029;-59
2023/03/27 13:02:58;;;;;;;68.75;9.05;;;12.50;72.60;;;;;;5046714;28;20049;-58
2023/03/27 13:05:39;;;;;;;71.60;9.90;;;12.50;72.60;;;;;;5065421;28;20021;-58
2023/03/27 13:08:39;;;;;;;63.67;9.75;;;12.50;72.70;;;;;;5058642;28;20061;-58